.
WxDataArchive / Data Records for 2006-07-06
2006-07-05 July 2006 2006-07-07

Data Records for Thursday, 06 July 2006

Time	Temp	Chill	HIndex	Humid	Dewpt	 Wind 	HiWind	WindDir	Rain 	Barom 
-----	----	-----	------	-----	-----	------	------	-------	-----	----- 
00:00	62.3	62.3	62.3	68	51.6	0	1	22	0.00	30.099 
00:05	62.3	62.3	62.3	68	51.6	0	0	---	0.00	30.099 
00:10	62.3	62.3	62.3	68	51.6	0	1	22	0.00	30.099 
00:15	62.1	62.1	62.1	68	51.4	0	0	---	0.00	30.098 
00:20	61.8	61.8	61.8	69	51.5	0	0	---	0.00	30.098 
00:25	61.6	61.6	61.6	69	51.3	0	0	---	0.00	30.098 
00:30	61.6	61.6	61.6	69	51.3	0	1	22	0.00	30.098 
00:35	61.6	61.6	61.6	69	51.3	0	1	22	0.00	30.098 
00:40	61.6	61.6	61.6	69	51.3	0	0	---	0.00	30.098 
00:45	61.5	61.5	61.5	69	51.2	0	0	---	0.00	30.100 
00:50	61.2	61.2	61.2	69	50.9	0	0	---	0.00	30.100 
00:55	61.0	61.0	61.0	69	50.8	0	0	---	0.00	30.100 
01:00	60.9	60.9	60.9	70	51.0	0	0	---	0.00	30.105 
01:05	60.7	60.7	60.7	70	50.9	0	0	---	0.00	30.105 
01:10	60.5	60.5	60.5	70	50.7	0	0	---	0.00	30.105 
01:15	60.4	60.4	60.4	70	50.6	0	0	---	0.00	30.107 
01:20	60.2	60.2	60.2	71	50.8	0	0	---	0.00	30.107 
01:25	59.9	59.9	59.9	71	50.5	0	0	---	0.00	30.107 
01:30	59.8	59.8	59.8	72	50.8	0	0	---	0.00	30.106 
01:35	59.6	59.6	59.6	72	50.6	0	0	---	0.00	30.106 
01:40	59.6	59.6	59.6	72	50.6	0	0	---	0.00	30.106 
01:45	59.5	59.5	59.5	72	50.5	0	0	---	0.00	30.108 
01:50	59.5	59.5	59.5	72	50.5	0	0	---	0.00	30.108 
01:55	59.5	59.5	59.5	72	50.5	0	0	---	0.00	30.108 
02:00	59.5	59.5	59.5	72	50.5	0	1	22	0.00	30.108 
02:05	59.6	59.6	59.6	72	50.6	0	1	22	0.00	30.108 
02:10	59.5	59.5	59.5	72	50.5	0	0	---	0.00	30.108 
02:15	59.5	59.5	59.5	71	50.1	0	0	---	0.00	30.107 
02:20	59.3	59.3	59.3	72	50.3	0	0	---	0.00	30.107 
02:25	59.2	59.2	59.2	72	50.2	0	0	---	0.00	30.107 
02:30	59.0	59.0	59.0	72	50.0	0	0	---	0.00	30.108 
02:35	58.9	58.9	58.9	73	50.3	0	0	---	0.00	30.108 
02:40	58.7	58.7	58.7	73	50.1	0	0	---	0.00	30.108 
02:45	58.6	58.6	58.6	73	50.0	0	0	---	0.00	30.109 
02:50	58.4	58.4	58.4	73	49.8	0	0	---	0.00	30.109 
02:55	58.3	58.3	58.3	74	50.0	0	0	---	0.00	30.109 
03:00	58.0	58.0	58.0	74	49.8	0	0	---	0.00	30.110 
03:05	57.8	57.8	57.8	75	49.9	0	0	---	0.00	30.110 
03:10	57.5	57.5	57.5	75	49.6	0	0	---	0.00	30.110 
03:15	57.2	57.2	57.2	75	49.3	0	0	---	0.00	30.111 
03:20	57.0	57.0	57.0	76	49.5	0	0	---	0.00	30.111 
03:25	56.7	56.7	56.7	77	49.6	0	0	---	0.00	30.111 
03:30	56.6	56.6	56.6	77	49.5	0	0	---	0.00	30.114 
03:35	56.5	56.5	56.5	77	49.4	0	0	---	0.00	30.114 
03:40	56.3	56.3	56.3	78	49.5	0	0	---	0.00	30.114 
03:45	56.2	56.2	56.2	79	49.8	0	0	---	0.00	30.117 
03:50	56.0	56.0	56.0	79	49.6	0	0	---	0.00	30.117 
03:55	55.9	55.9	55.9	79	49.5	0	0	---	0.00	30.117 
04:00	55.7	55.7	55.7	80	49.6	0	0	---	0.00	30.118 
04:05	55.6	55.6	55.6	80	49.5	0	0	---	0.00	30.118 
04:10	55.4	55.4	55.4	81	49.7	0	0	---	0.00	30.118 
04:15	55.3	55.3	55.3	81	49.6	0	0	---	0.00	30.121 
04:20	55.1	55.1	55.1	81	49.4	0	0	---	0.00	30.121 
04:25	55.0	55.0	55.0	82	49.6	0	0	---	0.00	30.121 
04:30	54.8	54.8	54.8	82	49.4	0	0	---	0.00	30.125 
04:35	54.8	54.8	54.8	82	49.4	0	0	---	0.00	30.125 
04:40	54.8	54.8	54.8	82	49.4	0	0	---	0.00	30.125 
04:45	54.8	54.8	54.8	82	49.4	0	0	---	0.00	30.127 
04:50	55.0	55.0	55.0	82	49.6	0	0	---	0.00	30.127 
04:55	55.1	55.1	55.1	82	49.7	0	0	---	0.00	30.127 
05:00	55.4	55.4	55.4	82	50.0	0	0	---	0.00	30.129 
05:05	55.6	55.6	55.6	81	49.9	0	0	---	0.00	30.129 
05:10	55.6	55.6	55.6	81	49.9	0	0	---	0.00	30.129 
05:15	55.7	55.7	55.7	81	50.0	0	1	22	0.00	30.133 
05:20	55.7	55.7	55.7	81	50.0	0	1	22	0.00	30.133 
05:25	55.9	55.9	55.9	81	50.2	0	0	---	0.00	30.133 
05:30	55.9	55.9	55.9	81	50.2	0	0	---	0.00	30.140 
05:35	55.7	55.7	55.7	81	50.0	0	0	---	0.00	30.140 
05:40	55.6	55.6	55.6	81	49.9	0	0	---	0.00	30.140 
05:45	55.4	55.4	55.4	81	49.7	0	0	---	0.00	30.143 
05:50	55.3	55.3	55.3	82	49.9	0	0	---	0.00	30.143 
05:55	55.3	55.3	55.3	82	49.9	0	0	---	0.00	30.143 
06:00	55.1	55.1	55.1	83	50.0	0	0	---	0.00	30.147 
06:05	55.1	55.1	55.1	83	50.0	0	0	---	0.00	30.147 
06:10	55.1	55.1	55.1	83	50.0	0	0	---	0.00	30.147 
06:15	55.1	55.1	55.1	83	50.0	0	0	---	0.00	30.153 
06:20	55.1	55.1	55.1	83	50.0	0	0	---	0.00	30.153 
06:25	55.1	55.1	55.1	84	50.4	0	1	22	0.00	30.153 
06:30	55.1	55.1	55.1	84	50.4	0	0	---	0.00	30.157 
06:35	55.1	55.1	55.1	84	50.4	0	0	---	0.00	30.157 
06:40	55.1	55.1	55.1	84	50.4	0	0	---	0.00	30.157 
06:45	55.1	55.1	55.1	84	50.4	0	0	---	0.00	30.162 
06:50	55.3	55.3	55.3	84	50.5	0	0	---	0.00	30.162 
06:55	55.4	55.4	55.4	84	50.6	0	0	---	0.00	30.162 
07:00	55.6	55.6	55.6	84	50.8	0	1	22	0.00	30.164 
07:05	55.9	55.9	55.9	84	51.1	0	1	22	0.00	30.164 
07:10	56.2	56.2	56.2	83	51.1	0	1	22	0.00	30.164 
07:15	56.5	56.5	56.5	83	51.4	0	1	22	0.00	30.173 
07:20	56.7	56.7	56.7	83	51.6	0	1	22	0.00	30.173 
07:25	57.0	57.0	57.0	82	51.6	0	1	22	0.00	30.173 
07:30	57.6	57.6	57.6	81	51.8	0	1	22	0.00	30.172 
07:35	58.1	58.1	58.1	80	52.0	0	1	22	0.00	30.172 
07:40	58.6	58.6	58.6	79	52.1	0	1	22	0.00	30.172 
07:45	59.0	59.0	59.0	78	52.1	0	1	22	0.00	30.176 
07:50	59.6	59.6	59.6	77	52.4	0	1	22	0.00	30.176 
07:55	60.1	60.1	60.1	75	52.1	0	1	0	0.00	30.176 
08:00	60.7	60.7	60.7	74	52.4	0	3	0	0.00	30.178 
08:05	61.3	61.3	61.3	74	52.9	0	2	90	0.00	30.178 
08:10	61.6	61.6	61.6	72	52.5	1	2	338	0.00	30.178 
08:15	62.1	62.1	62.1	71	52.6	0	1	315	0.00	30.185 
08:20	62.6	62.6	62.6	70	52.7	0	1	315	0.00	30.185 
08:25	63.1	63.1	63.1	69	52.8	0	1	315	0.00	30.185 
08:30	63.5	63.5	63.5	68	52.7	0	3	338	0.00	30.186 
08:35	64.3	64.3	64.3	66	52.7	0	1	0	0.00	30.186 
08:40	65.0	65.0	65.0	64	52.5	0	2	0	0.00	30.186 
08:45	65.8	65.8	65.8	62	52.4	0	3	22	0.00	30.187 
08:50	66.1	66.1	66.1	61	52.3	1	3	22	0.00	30.187 
08:55	66.6	66.6	66.6	62	53.2	0	3	270	0.00	30.187 
09:00	67.4	67.4	67.4	62	53.9	1	3	158	0.00	30.189 
09:05	68.1	68.1	68.1	57	52.3	1	3	68	0.00	30.189 
09:10	68.1	68.1	68.1	56	51.8	0	3	315	0.00	30.189 
09:15	68.4	68.4	68.4	58	53.0	1	2	0	0.00	30.194 
09:20	69.3	69.3	69.3	58	53.9	0	2	0	0.00	30.194 
09:25	70.1	70.1	70.1	54	52.7	1	3	0	0.00	30.194 
09:30	70.4	70.4	70.4	54	52.9	1	3	45	0.00	30.192 
09:35	70.8	70.8	70.8	52	52.3	1	3	22	0.00	30.192 
09:40	70.6	70.6	70.6	53	52.6	1	2	45	0.00	30.192 
09:45	70.9	70.9	70.9	51	51.9	2	6	45	0.00	30.197 
09:50	71.1	71.1	71.1	51	52.0	2	4	68	0.00	30.197 
09:55	71.5	71.5	71.5	49	51.3	1	4	112	0.00	30.197 
10:00	71.6	71.6	71.6	52	53.0	1	5	112	0.00	30.197 
10:05	72.0	72.0	72.0	46	50.1	1	5	112	0.00	30.197 
10:10	72.1	72.1	72.1	50	52.4	2	5	112	0.00	30.197 
10:15	72.5	72.5	72.5	49	52.2	1	3	112	0.00	30.201 
10:20	73.2	73.2	73.2	50	53.4	1	3	112	0.00	30.201 
10:25	73.2	73.2	73.2	46	51.2	2	6	112	0.00	30.201 
10:30	72.8	72.8	72.8	47	51.4	3	5	90	0.00	30.201 
10:35	72.8	72.8	72.8	48	52.0	1	3	112	0.00	30.201 
10:40	73.3	73.3	73.3	51	54.1	2	6	112	0.00	30.201 
10:45	73.9	73.9	73.9	50	54.1	1	5	90	0.00	30.201 
10:50	74.2	74.2	74.2	47	52.7	1	3	112	0.00	30.201 
10:55	74.6	74.6	74.6	43	50.6	2	4	90	0.00	30.201 
11:00	74.6	74.6	74.6	44	51.2	1	3	90	0.00	30.201 
11:05	74.9	74.9	74.9	45	52.1	1	4	90	0.00	30.201 
11:10	74.6	74.6	74.6	41	49.3	1	4	270	0.00	30.201 
11:15	74.0	74.0	74.0	43	50.1	2	4	315	0.00	30.202 
11:20	74.9	74.9	74.9	45	52.1	2	6	45	0.00	30.202 
11:25	74.9	74.9	74.9	41	49.6	0	2	315	0.00	30.202 
11:30	75.4	75.4	77.6	41	50.0	1	5	315	0.00	30.202 
11:35	75.4	75.4	77.6	41	50.0	1	3	270	0.00	30.202 
11:40	75.6	75.6	77.8	43	51.5	1	4	90	0.00	30.202 
11:45	75.6	75.6	77.8	43	51.5	2	10	90	0.00	30.205 
11:50	76.1	76.1	77.9	42	51.3	1	3	22	0.00	30.205 
11:55	76.1	76.1	77.9	40	50.0	1	3	112	0.00	30.205 
12:00	75.4	75.4	77.7	42	50.7	2	5	315	0.00	30.204 
12:05	75.1	75.1	77.6	42	50.4	1	3	315	0.00	30.204 
12:10	75.4	75.4	77.7	42	50.7	1	3	90	0.00	30.204 
12:15	76.0	76.0	77.9	43	51.9	3	6	90	0.00	30.207 
12:20	76.1	76.1	78.0	43	52.0	1	6	90	0.00	30.207 
12:25	76.5	76.5	78.1	43	52.3	1	5	292	0.00	30.207 
12:30	76.5	76.5	78.1	41	51.0	3	10	90	0.00	30.204 
12:35	76.8	76.8	78.3	43	52.6	2	5	338	0.00	30.204 
12:40	76.7	76.7	78.1	41	51.2	1	7	315	0.00	30.204 
12:45	76.7	76.7	78.2	43	52.5	1	3	0	0.00	30.203 
12:50	76.7	76.7	78.1	41	51.2	1	5	270	0.00	30.203 
12:55	76.5	76.5	78.2	44	52.9	1	5	270	0.00	30.203 
13:00	76.5	76.5	78.1	43	52.3	1	3	0	0.00	30.202 
13:05	76.8	76.8	78.2	41	51.3	2	5	90	0.00	30.202 
13:10	76.7	76.7	78.3	46	54.3	1	5	90	0.00	30.202 
13:15	76.1	76.1	77.9	41	50.7	1	4	292	0.00	30.202 
13:20	76.1	76.1	77.7	37	47.9	1	3	315	0.00	30.202 
13:25	76.7	76.7	78.1	41	51.2	1	4	22	0.00	30.202 
13:30	76.7	76.7	78.1	39	49.9	1	3	292	0.00	30.203 
13:35	77.2	77.2	78.3	39	50.3	1	3	292	0.00	30.203 
13:40	77.2	77.2	78.4	42	52.3	1	5	315	0.00	30.203 
13:45	77.9	77.9	78.8	43	53.6	1	10	112	0.00	30.201 
13:50	77.7	77.7	78.5	39	50.7	2	5	292	0.00	30.201 
13:55	78.1	78.1	78.8	41	52.5	1	4	112	0.00	30.201 
14:00	78.3	78.3	78.7	37	49.9	1	5	90	0.00	30.200 
14:05	78.1	78.1	78.5	36	48.9	3	7	112	0.00	30.200 
14:10	78.1	78.1	78.8	40	51.8	2	4	112	0.00	30.200 
14:15	78.1	78.1	78.5	36	48.9	1	6	90	0.00	30.199 
14:20	78.1	78.1	78.9	43	53.8	1	4	315	0.00	30.199 
14:25	78.5	78.5	78.7	36	49.3	1	4	112	0.00	30.199 
14:30	78.5	78.5	79.1	41	52.8	2	4	90	0.00	30.194 
14:35	78.5	78.5	78.7	35	48.5	2	6	248	0.00	30.194 
14:40	77.9	77.9	78.6	39	50.9	1	4	292	0.00	30.194 
14:45	77.4	77.4	78.3	37	49.1	2	5	90	0.00	30.193 
14:50	77.2	77.2	78.3	39	50.3	2	7	112	0.00	30.193 
14:55	77.7	77.7	78.5	39	50.7	1	3	112	0.00	30.193 
15:00	78.3	78.3	78.8	38	50.6	1	3	0	0.00	30.195 
15:05	78.5	78.5	78.7	36	49.3	1	6	0	0.00	30.195 
15:10	78.5	78.5	78.8	37	50.0	2	6	90	0.00	30.195 
15:15	78.1	78.1	78.5	36	48.9	1	3	270	0.00	30.199 
15:20	78.3	78.3	78.8	39	51.3	3	6	90	0.00	30.199 
15:25	78.8	78.8	79.2	41	53.1	1	6	68	0.00	30.199 
15:30	79.4	79.4	79.2	35	49.3	1	5	90	0.00	30.201 
15:35	79.9	79.9	79.8	39	52.7	1	4	180	0.00	30.201 
15:40	80.1	80.1	79.6	35	50.0	1	3	112	0.00	30.201 
15:45	80.1	80.1	79.6	35	50.0	1	5	68	0.00	30.195 
15:50	79.6	79.6	79.2	34	48.7	1	5	112	0.00	30.195 
15:55	78.8	78.8	79.1	39	51.7	1	5	112	0.00	30.195 
16:00	79.2	79.2	79.1	36	49.9	1	5	112	0.00	30.197 
16:05	79.2	79.2	79.1	36	49.9	1	4	112	0.00	30.197 
16:10	78.3	78.3	78.7	37	49.9	0	2	68	0.00	30.197 
16:15	77.6	77.6	78.4	37	49.2	0	1	68	0.00	30.199 
16:20	77.6	77.6	78.3	36	48.5	0	1	68	0.00	30.199 
16:25	77.7	77.7	78.3	36	48.6	1	3	22	0.00	30.199 
16:30	77.9	77.9	78.5	37	49.5	3	5	90	0.00	30.195 
16:35	78.3	78.3	78.6	36	49.1	1	4	112	0.00	30.195 
16:40	77.9	77.9	78.6	38	50.2	1	2	68	0.00	30.195 
16:45	77.4	77.4	78.4	39	50.5	0	2	45	0.00	30.194 
16:50	77.4	77.4	78.2	36	48.3	0	3	0	0.00	30.194 
16:55	78.3	78.3	78.6	36	49.1	1	3	270	0.00	30.194 
17:00	78.3	78.3	78.6	35	48.4	1	3	292	0.00	30.192 
17:05	78.3	78.3	78.5	34	47.6	1	2	292	0.00	30.192 
17:10	78.6	78.6	78.7	35	48.6	1	5	135	0.00	30.192 
17:15	78.8	78.8	78.8	35	48.8	1	4	112	0.00	30.190 
17:20	78.6	78.6	78.8	36	49.4	2	4	112	0.00	30.190 
17:25	78.1	78.1	78.5	35	48.2	1	3	112	0.00	30.190 
17:30	77.7	77.7	78.5	38	50.0	1	6	90	0.00	30.192 
17:35	77.7	77.7	78.4	37	49.3	1	4	90	0.00	30.192 
17:40	77.6	77.6	78.4	38	50.0	0	3	90	0.00	30.192 
17:45	77.4	77.4	78.3	37	49.1	0	1	90	0.00	30.193 
17:50	76.8	76.8	78.1	39	49.9	1	3	90	0.00	30.193 
17:55	76.7	76.7	78.1	40	50.5	1	4	112	0.00	30.193 
18:00	76.7	76.7	78.0	38	49.2	1	2	112	0.00	30.195 
18:05	77.2	77.2	78.1	36	48.2	0	2	0	0.00	30.195 
18:10	77.4	77.4	78.2	36	48.3	0	3	270	0.00	30.195 
18:15	77.7	77.7	78.3	36	48.6	1	3	68	0.00	30.191 
18:20	77.7	77.7	78.3	35	47.8	2	12	90	0.00	30.191 
18:25	77.6	77.6	78.5	39	50.7	0	3	90	0.00	30.191 
18:30	77.6	77.6	78.4	38	50.0	1	5	90	0.00	30.190 
18:35	77.4	77.4	78.4	39	50.5	1	4	90	0.00	30.190 
18:40	77.0	77.0	78.0	36	48.0	0	1	90	0.00	30.190 
18:45	76.8	76.8	78.0	37	48.5	0	1	90	0.00	30.191 
18:50	76.8	76.8	78.3	43	52.6	1	4	90	0.00	30.191 
18:55	76.7	76.7	78.1	40	50.5	0	2	90	0.00	30.191 
19:00	76.5	76.5	78.0	39	49.7	0	2	90	0.00	30.192 
19:05	76.3	76.3	77.8	38	48.8	0	2	68	0.00	30.192 
19:10	76.3	76.3	77.9	39	49.5	0	2	68	0.00	30.192 
19:15	76.1	76.1	77.8	39	49.3	0	3	315	0.00	30.191 
19:20	76.1	76.1	78.0	43	52.0	0	1	315	0.00	30.191 
19:25	76.0	76.0	77.8	40	49.9	0	1	315	0.00	30.191 
19:30	75.8	75.8	77.8	41	50.4	0	1	315	0.00	30.194 
19:35	75.6	75.6	77.8	43	51.5	0	1	315	0.00	30.194 
19:40	75.4	75.4	77.6	41	50.0	0	1	315	0.00	30.194 
19:45	75.3	75.3	77.6	42	50.6	0	1	315	0.00	30.196 
19:50	74.9	74.9	74.9	42	50.2	0	1	315	0.00	30.196 
19:55	74.6	74.6	74.6	44	51.2	0	1	315	0.00	30.196 
20:00	74.4	74.4	74.4	43	50.4	0	1	315	0.00	30.203 
20:05	74.2	74.2	74.2	44	50.9	0	0	---	0.00	30.203 
20:10	74.2	74.2	74.2	44	50.9	0	1	315	0.00	30.203 
20:15	73.9	73.9	73.9	45	51.2	0	0	---	0.00	30.200 
20:20	73.7	73.7	73.7	46	51.6	0	1	315	0.00	30.200 
20:25	73.3	73.3	73.3	46	51.3	0	0	---	0.00	30.200 
20:30	73.2	73.2	73.2	46	51.2	0	0	---	0.00	30.200 
20:35	72.8	72.8	72.8	48	52.0	0	0	---	0.00	30.200 
20:40	72.7	72.7	72.7	47	51.3	0	0	---	0.00	30.200 
20:45	72.5	72.5	72.5	48	51.7	0	0	---	0.00	30.203 
20:50	72.1	72.1	72.1	50	52.4	0	0	---	0.00	30.203 
20:55	71.8	71.8	71.8	50	52.1	0	0	---	0.00	30.203 
21:00	71.3	71.3	71.3	51	52.2	0	0	---	0.00	30.206 
21:05	70.9	70.9	70.9	52	52.4	0	0	---	0.00	30.206 
21:10	70.6	70.6	70.6	52	52.1	0	0	---	0.00	30.206 
21:15	70.1	70.1	70.1	54	52.7	0	0	---	0.00	30.208 
21:20	69.8	69.8	69.8	54	52.4	0	0	---	0.00	30.208 
21:25	69.3	69.3	69.3	55	52.4	0	0	---	0.00	30.208 
21:30	68.9	68.9	68.9	56	52.5	0	0	---	0.00	30.211 
21:35	68.4	68.4	68.4	58	53.0	0	0	---	0.00	30.211 
21:40	68.1	68.1	68.1	58	52.8	0	0	---	0.00	30.211 
21:45	67.6	67.6	67.6	60	53.2	0	0	---	0.00	30.213 
21:50	67.1	67.1	67.1	61	53.2	0	0	---	0.00	30.213 
21:55	66.8	66.8	66.8	62	53.4	0	0	---	0.00	30.213 
22:00	66.3	66.3	66.3	63	53.3	0	0	---	0.00	30.218 
22:05	66.0	66.0	66.0	64	53.5	0	0	---	0.00	30.218 
22:10	65.6	65.6	65.6	65	53.5	0	0	---	0.00	30.218 
22:15	65.3	65.3	65.3	65	53.2	0	0	---	0.00	30.221 
22:20	65.0	65.0	65.0	67	53.8	0	0	---	0.00	30.221 
22:25	64.7	64.7	64.7	67	53.5	0	0	---	0.00	30.221 
22:30	64.3	64.3	64.3	68	53.5	0	0	---	0.00	30.231 
22:35	64.0	64.0	64.0	69	53.6	0	0	---	0.00	30.231 
22:40	63.9	63.9	63.9	69	53.5	0	0	---	0.00	30.231 
22:45	63.5	63.5	63.5	69	53.1	0	0	---	0.00	30.231 
22:50	63.2	63.2	63.2	70	53.2	0	0	---	0.00	30.231 
22:55	63.1	63.1	63.1	71	53.5	0	0	---	0.00	30.231 
23:00	62.7	62.7	62.7	72	53.5	0	0	---	0.00	30.233 
23:05	62.4	62.4	62.4	73	53.6	0	0	---	0.00	30.233 
23:10	62.3	62.3	62.3	74	53.9	0	0	---	0.00	30.233 
23:15	62.1	62.1	62.1	75	54.1	0	0	---	0.00	30.240 
23:20	62.0	62.0	62.0	75	54.0	0	0	---	0.00	30.240 
23:25	61.6	61.6	61.6	76	54.0	0	0	---	0.00	30.240 
23:30	61.5	61.5	61.5	77	54.2	0	0	---	0.00	30.240 
23:35	61.2	61.2	61.2	77	53.9	0	0	---	0.00	30.240 
23:40	61.0	61.0	61.0	78	54.1	0	0	---	0.00	30.240 
23:45	60.9	60.9	60.9	78	54.0	0	0	---	0.00	30.243 
23:50	60.5	60.5	60.5	78	53.6	0	0	---	0.00	30.243 
23:55	60.4	60.4	60.4	79	53.9	0	0	---	0.00	30.243 

CoCoRaHS
IN-AL-39
A2 Web Hosting
Creative Commons License
GoDaddy
Look for:

loaded 2017-10-18 21:55:29 • last modified 2010-11-18 10:43:29
Privacy PolicyDisclaimer
• wx.awcolley.com is powered by PmWiki v.2002016 •
• all content (unless otherwise noted) © 2017 A W Colley